createdAt,value
2023-08-24T04:07:41.542Z,26.06
2023-08-24T04:10:10.356Z,25.97
2023-08-24T04:12:37.835Z,25.83
2023-08-24T04:15:05.959Z,25.84
2023-08-24T04:17:33.984Z,25.73
2023-08-24T04:20:02.262Z,25.59
2023-08-24T04:22:30.457Z,25.79
2023-08-24T04:24:57.821Z,25.84
2023-08-24T04:27:25.144Z,25.80
2023-08-24T04:29:53.147Z,25.67
2023-08-24T04:32:20.526Z,25.57
2023-08-24T04:34:47.895Z,25.48
2023-08-24T04:37:15.667Z,25.61
2023-08-24T04:39:43.083Z,25.63
2023-08-24T04:42:10.482Z,25.71
2023-08-24T04:44:37.877Z,25.68
2023-08-24T04:47:05.457Z,25.53
2023-08-24T04:49:32.819Z,25.47
2023-08-24T04:52:00.167Z,25.43
2023-08-24T04:54:27.615Z,25.56
2023-08-24T04:56:55.054Z,25.55
2023-08-24T04:59:22.529Z,25.54
2023-08-24T05:01:49.888Z,25.56
2023-08-24T05:04:17.389Z,25.36
2023-08-24T05:06:44.912Z,25.61
2023-08-24T05:09:12.818Z,25.46
2023-08-24T05:11:40.227Z,25.47
2023-08-24T05:14:07.627Z,25.77
2023-08-24T05:16:34.975Z,25.52
2023-08-24T05:19:04.224Z,25.78
2023-08-24T05:21:31.581Z,25.80
2023-08-24T05:23:58.972Z,25.85
2023-08-24T05:26:26.302Z,25.97
2023-08-24T05:28:54.900Z,26.17
2023-08-24T05:31:22.840Z,26.22
2023-08-24T05:33:50.290Z,26.32
2023-08-24T05:36:18.035Z,26.34
2023-08-24T05:39:03.566Z,26.39
2023-08-24T05:41:33.825Z,26.76
2023-08-24T05:44:01.229Z,26.76
2023-08-24T05:46:29.137Z,26.77
2023-08-24T05:48:57.800Z,26.83
2023-08-24T05:51:25.593Z,26.86
2023-08-24T05:53:56.590Z,27.06
2023-08-24T05:56:24.493Z,26.96
2023-08-24T05:58:55.293Z,26.88
2023-08-24T06:01:23.671Z,27.13
2023-08-24T06:03:51.732Z,27.10
2023-08-24T06:06:19.105Z,27.05
2023-08-24T06:08:48.169Z,27.08
2023-08-24T06:11:15.579Z,27.04
2023-08-24T06:13:42.909Z,27.30
2023-08-24T06:16:10.701Z,27.37
2023-08-24T06:18:38.205Z,27.29
2023-08-24T06:21:06.077Z,27.39
2023-08-24T06:23:33.730Z,27.47
2023-08-24T06:26:02.198Z,27.41
2023-08-24T06:28:30.000Z,27.49
2023-08-24T06:30:57.664Z,27.63
2023-08-24T06:33:32.388Z,27.64
2023-08-24T06:36:00.141Z,27.78
2023-08-24T06:38:27.925Z,27.67
2023-08-24T06:40:55.588Z,27.62
2023-08-24T06:43:22.992Z,27.92
2023-08-24T06:45:50.868Z,27.78
2023-08-24T06:48:19.532Z,28.07
2023-08-24T06:50:47.095Z,28.25
2023-08-24T06:53:15.949Z,28.54
2023-08-24T06:55:44.412Z,28.68
2023-08-24T06:58:11.762Z,28.85
2023-08-24T07:00:40.785Z,29.30
2023-08-24T07:03:08.180Z,29.38
2023-08-24T07:05:37.797Z,29.48
2023-08-24T07:08:05.562Z,29.41
2023-08-24T07:10:34.180Z,29.36
2023-08-24T07:13:01.964Z,29.52
2023-08-24T07:15:29.828Z,29.58
2023-08-24T07:17:58.522Z,29.61
2023-08-24T07:20:25.958Z,29.92
2023-08-24T07:22:54.909Z,30.06
2023-08-24T07:25:22.791Z,29.96
2023-08-24T07:27:50.855Z,30.00
2023-08-24T07:30:32.685Z,29.99
2023-08-24T07:33:02.074Z,30.00
2023-08-24T07:35:29.685Z,30.19
2023-08-24T07:37:57.956Z,30.41
2023-08-24T07:40:27.192Z,30.68
2023-08-24T07:42:57.408Z,30.74
2023-08-24T07:45:25.055Z,30.26
2023-08-24T07:47:52.908Z,30.31
2023-08-24T07:50:21.032Z,30.36
2023-08-24T07:52:48.501Z,30.26
2023-08-24T07:55:17.431Z,30.43
2023-08-24T07:57:44.803Z,30.78
2023-08-24T08:00:15.211Z,30.92
2023-08-24T08:02:42.843Z,30.99
2023-08-24T08:05:14.208Z,31.21
2023-08-24T08:07:41.674Z,31.26
2023-08-24T08:10:09.930Z,31.27
2023-08-24T08:12:38.335Z,31.27
2023-08-24T08:15:06.248Z,31.47
2023-08-24T08:17:35.161Z,31.35
2023-08-24T08:20:03.900Z,31.25
2023-08-24T08:22:36.522Z,31.43
2023-08-24T08:25:04.244Z,31.29
2023-08-24T08:27:32.076Z,31.63
2023-08-24T08:29:59.895Z,31.67
2023-08-24T08:32:28.431Z,31.67
2023-08-24T08:35:01.097Z,31.84
2023-08-24T08:37:28.996Z,31.90
2023-08-24T08:39:56.400Z,31.52
2023-08-24T08:42:24.904Z,31.66
2023-08-24T08:44:55.135Z,31.81
2023-08-24T08:47:23.821Z,31.86
2023-08-24T08:49:53.512Z,32.15
2023-08-24T08:52:20.864Z,32.50
2023-08-24T08:54:48.265Z,32.69
2023-08-24T08:57:17.569Z,32.48
2023-08-24T08:59:46.143Z,32.49
2023-08-24T09:02:17.763Z,32.26
2023-08-24T09:04:46.445Z,32.19
2023-08-24T09:07:15.017Z,32.55
2023-08-24T09:09:42.962Z,32.76
2023-08-24T09:12:10.725Z,32.92
2023-08-24T09:14:38.870Z,32.96
2023-08-24T09:17:06.369Z,33.00
2023-08-24T09:19:36.551Z,33.13
2023-08-24T09:22:05.721Z,33.11
2023-08-24T09:24:36.046Z,33.06
2023-08-24T09:27:21.381Z,33.17
2023-08-24T09:29:53.426Z,33.39
2023-08-24T09:32:34.321Z,33.30
2023-08-24T09:35:21.820Z,33.45
2023-08-24T09:37:51.067Z,33.25
2023-08-24T09:40:25.438Z,33.31
2023-08-24T09:42:52.910Z,33.29
2023-08-24T09:45:20.546Z,33.36
2023-08-24T09:47:52.931Z,33.50
2023-08-24T09:50:20.468Z,33.55
2023-08-24T09:52:52.095Z,33.68
2023-08-24T09:55:23.406Z,33.77
2023-08-24T09:57:55.911Z,34.00
2023-08-24T10:00:25.814Z,33.92
2023-08-24T10:02:57.227Z,34.06
2023-08-24T10:05:38.113Z,34.11
2023-08-24T10:08:12.127Z,34.15
2023-08-24T10:10:43.614Z,34.25
2023-08-24T10:13:23.524Z,34.21
2023-08-24T10:15:51.978Z,34.40
2023-08-24T10:18:20.692Z,34.26
2023-08-24T10:20:49.737Z,34.32
2023-08-24T10:23:18.051Z,34.39
2023-08-24T10:25:47.913Z,34.45
2023-08-24T10:28:17.269Z,34.44
2023-08-24T10:30:47.264Z,34.67
2023-08-24T10:33:16.046Z,34.49
2023-08-24T10:35:44.992Z,34.27
2023-08-24T10:38:25.410Z,34.68
2023-08-24T10:40:53.477Z,34.84
2023-08-24T10:43:21.769Z,35.06
2023-08-24T10:45:59.764Z,35.17
2023-08-24T10:48:51.844Z,35.20
2023-08-24T10:51:23.245Z,35.29
2023-08-24T10:53:57.047Z,35.44
2023-08-24T10:56:31.702Z,35.52
2023-08-24T10:59:16.935Z,35.56
2023-08-24T11:01:55.280Z,35.11
2023-08-24T11:04:24.109Z,35.31
2023-08-24T11:07:05.439Z,35.37
2023-08-24T11:09:53.404Z,35.53
2023-08-24T11:12:20.774Z,35.47
2023-08-24T11:14:55.652Z,36.05
2023-08-24T11:17:24.395Z,36.01
2023-08-24T11:19:55.595Z,36.02
2023-08-24T11:22:23.335Z,36.24
2023-08-24T11:24:50.681Z,35.73
2023-08-24T11:27:21.645Z,36.56
2023-08-24T11:29:59.243Z,36.47
2023-08-24T11:32:26.711Z,36.74
2023-08-24T11:34:54.270Z,36.63
2023-08-24T11:37:22.102Z,36.07
2023-08-24T11:39:49.886Z,36.61
2023-08-24T11:42:17.612Z,36.75
2023-08-24T11:44:49.456Z,37.23
2023-08-24T11:47:17.644Z,37.13
2023-08-24T11:49:45.546Z,37.74
2023-08-24T11:52:16.840Z,37.42
2023-08-24T11:54:45.612Z,37.69
2023-08-24T11:57:12.975Z,37.58
2023-08-24T11:59:41.159Z,37.76
2023-08-24T12:02:11.006Z,37.65
2023-08-24T12:04:43.957Z,37.51
2023-08-24T12:07:13.904Z,37.42
2023-08-24T12:09:46.007Z,37.53
2023-08-24T12:12:15.123Z,37.88
2023-08-24T12:14:46.264Z,37.55
2023-08-24T12:17:14.989Z,37.52
2023-08-24T12:19:47.567Z,37.92
2023-08-24T12:22:18.982Z,38.10
2023-08-24T12:24:47.936Z,38.54
2023-08-24T12:27:27.145Z,38.48
2023-08-24T12:29:54.869Z,38.11
2023-08-24T12:32:24.573Z,38.51
2023-08-24T12:34:52.804Z,38.41
2023-08-24T12:37:20.796Z,38.29
2023-08-24T12:39:49.901Z,38.51
2023-08-24T12:42:17.740Z,38.96
2023-08-24T12:44:46.067Z,39.10
2023-08-24T12:47:13.448Z,39.10
2023-08-24T12:49:40.783Z,39.21
2023-08-24T12:52:08.719Z,39.32
2023-08-24T12:54:36.074Z,39.15
2023-08-24T12:57:03.908Z,39.26
2023-08-24T12:59:31.249Z,39.16
2023-08-24T13:01:58.996Z,39.42
2023-08-24T13:04:26.932Z,39.64
2023-08-24T13:06:54.349Z,39.81
2023-08-24T13:09:22.182Z,39.85
2023-08-24T13:11:50.970Z,39.80
2023-08-24T13:14:18.419Z,39.56
2023-08-24T13:16:47.085Z,39.53
2023-08-24T13:19:14.906Z,39.54
2023-08-24T13:21:42.248Z,39.18
2023-08-24T13:24:09.645Z,39.75
2023-08-24T13:26:39.072Z,39.58
2023-08-24T13:29:07.051Z,39.63
2023-08-24T13:31:34.493Z,39.80
2023-08-24T13:34:05.633Z,39.62
2023-08-24T13:36:33.439Z,39.42
2023-08-24T13:39:01.271Z,39.30
2023-08-24T13:41:28.627Z,39.41
2023-08-24T13:43:56.002Z,39.96
2023-08-24T13:46:23.735Z,40.19
2023-08-24T13:48:51.150Z,39.87
2023-08-24T13:51:19.201Z,39.42
2023-08-24T13:53:48.482Z,39.68
2023-08-24T13:56:16.131Z,39.93
2023-08-24T13:58:44.000Z,40.36
2023-08-24T14:01:11.850Z,40.31
2023-08-24T14:03:44.234Z,39.43
2023-08-24T14:06:11.970Z,40.25
2023-08-24T14:08:39.331Z,39.31
2023-08-24T14:11:06.699Z,39.47
2023-08-24T14:13:34.183Z,40.55
2023-08-24T14:16:02.044Z,40.87
2023-08-24T14:18:30.441Z,40.87
2023-08-24T14:20:58.368Z,40.87
2023-08-24T14:23:25.840Z,40.90
2023-08-24T14:25:53.784Z,40.65
2023-08-24T14:28:23.431Z,41.10
2023-08-24T14:30:51.780Z,42.29
2023-08-24T14:33:20.113Z,45.74
2023-08-24T14:35:54.998Z,46.91
2023-08-24T14:38:22.849Z,50.59
2023-08-24T14:40:50.231Z,52.19
2023-08-24T14:43:17.592Z,53.58
2023-08-24T14:45:45.231Z,54.63
2023-08-24T14:48:13.296Z,54.04
2023-08-24T14:50:40.889Z,54.38
2023-08-24T14:53:08.428Z,56.44
2023-08-24T14:55:39.174Z,56.37
2023-08-24T14:58:06.485Z,57.22
2023-08-24T15:00:35.343Z,57.26
2023-08-24T15:03:03.539Z,57.80
2023-08-24T15:05:31.268Z,55.06
2023-08-24T15:07:59.525Z,53.90
2023-08-24T15:10:30.094Z,55.28
2023-08-24T15:12:57.907Z,57.22
2023-08-24T15:15:25.682Z,56.44
2023-08-24T15:17:53.139Z,55.13
2023-08-24T15:20:20.714Z,54.36
2023-08-24T15:22:49.053Z,55.22
2023-08-24T15:25:16.495Z,55.50
2023-08-24T15:27:43.938Z,55.41
2023-08-24T15:30:11.657Z,55.65
2023-08-24T15:32:42.122Z,56.32
2023-08-24T15:35:09.893Z,52.75
2023-08-24T15:37:37.774Z,53.02
2023-08-24T15:40:05.597Z,51.85
2023-08-24T15:42:33.457Z,51.90
2023-08-24T15:45:02.485Z,51.77
2023-08-24T15:47:29.919Z,52.33
2023-08-24T15:49:57.794Z,51.88
2023-08-24T15:52:27.730Z,51.98
2023-08-24T15:54:55.090Z,52.71
2023-08-24T15:57:22.962Z,51.33
2023-08-24T15:59:50.429Z,50.45
2023-08-24T16:02:17.859Z,48.80
2023-08-24T16:04:46.184Z,48.22
2023-08-24T16:07:13.624Z,45.85
2023-08-24T16:09:43.585Z,47.67
2023-08-24T16:12:11.032Z,47.88
2023-08-24T16:14:38.515Z,47.82
2023-08-24T16:17:09.150Z,48.38
2023-08-24T16:19:36.538Z,48.35
2023-08-24T16:22:04.075Z,48.43
2023-08-24T16:24:37.234Z,45.42
2023-08-24T16:27:05.583Z,47.58
2023-08-24T16:29:33.600Z,48.93
2023-08-24T16:32:00.965Z,49.74
2023-08-24T16:34:28.389Z,48.45
2023-08-24T16:36:56.176Z,48.39
2023-08-24T16:39:23.794Z,46.40
2023-08-24T16:41:54.395Z,46.58
2023-08-24T16:44:21.993Z,45.78
2023-08-24T16:46:49.896Z,45.03
2023-08-24T16:49:19.948Z,44.66
2023-08-24T16:51:50.531Z,44.63
2023-08-24T16:54:18.055Z,45.02
2023-08-24T16:56:45.571Z,43.86
2023-08-24T16:59:18.749Z,43.07
2023-08-24T17:01:46.299Z,41.54
2023-08-24T17:04:13.848Z,41.46
2023-08-24T17:06:41.564Z,40.91
2023-08-24T17:09:09.050Z,39.62
2023-08-24T17:11:36.478Z,38.33
2023-08-24T17:14:03.861Z,37.88
2023-08-24T17:16:31.675Z,37.39
2023-08-24T17:18:59.265Z,37.20
2023-08-24T17:21:26.860Z,37.79
2023-08-24T17:23:54.258Z,37.46
2023-08-24T17:26:24.477Z,37.16
2023-08-24T17:28:52.113Z,37.26
2023-08-24T17:31:23.378Z,37.15
2023-08-24T17:33:53.545Z,37.10
2023-08-24T17:36:21.470Z,35.93
2023-08-24T17:38:59.279Z,35.69
2023-08-24T17:41:42.540Z,35.72
2023-08-24T17:44:10.115Z,35.74
2023-08-24T17:46:38.039Z,35.65
2023-08-24T17:49:08.541Z,35.31
2023-08-24T17:51:36.702Z,35.20
2023-08-24T17:54:04.151Z,35.25
2023-08-24T17:56:33.054Z,35.39
2023-08-24T17:59:03.746Z,35.23
2023-08-24T18:01:52.015Z,35.35
2023-08-24T18:04:25.544Z,35.11
2023-08-24T18:06:55.174Z,34.96
2023-08-24T18:09:22.640Z,34.99
2023-08-24T18:11:52.694Z,35.01
2023-08-24T18:14:20.230Z,35.00
2023-08-24T18:16:50.009Z,35.08
2023-08-24T18:19:17.401Z,34.89
2023-08-24T18:21:44.814Z,34.95
2023-08-24T18:24:15.115Z,34.86
2023-08-24T18:26:42.534Z,34.94
2023-08-24T18:29:10.634Z,34.30
2023-08-24T18:31:41.829Z,34.47
2023-08-24T18:34:12.240Z,34.48
2023-08-24T18:36:39.966Z,34.43
2023-08-24T18:39:08.913Z,34.53
2023-08-24T18:41:39.292Z,34.39
2023-08-24T18:44:06.659Z,34.50
2023-08-24T18:46:34.123Z,34.42
2023-08-24T18:49:04.295Z,34.29
2023-08-24T18:51:31.894Z,33.88
2023-08-24T18:54:25.566Z,33.61
2023-08-24T18:56:53.585Z,33.66
2023-08-24T18:59:21.679Z,33.37
2023-08-24T19:01:55.551Z,33.21
2023-08-24T19:04:25.487Z,33.25
2023-08-24T19:06:53.557Z,33.29
2023-08-24T19:09:23.203Z,33.30
2023-08-24T19:11:50.890Z,33.35
2023-08-24T19:14:21.097Z,33.02
2023-08-24T19:16:48.456Z,32.90
2023-08-24T19:19:18.841Z,32.68
2023-08-24T19:21:46.202Z,32.52
2023-08-24T19:24:14.383Z,32.41
2023-08-24T19:26:43.955Z,32.35
2023-08-24T19:29:11.447Z,32.24
2023-08-24T19:31:39.163Z,32.03
2023-08-24T19:34:08.201Z,31.99
2023-08-24T19:36:36.092Z,32.09
2023-08-24T19:39:06.368Z,31.98
2023-08-24T19:41:38.575Z,31.78
2023-08-24T19:44:11.643Z,31.76
2023-08-24T19:46:38.960Z,31.60
2023-08-24T19:49:08.634Z,31.67
2023-08-24T19:51:42.022Z,31.74
2023-08-24T19:54:11.281Z,31.71
2023-08-24T19:56:43.614Z,31.72
2023-08-24T19:59:11.729Z,31.77
2023-08-24T20:01:39.653Z,31.69
2023-08-24T20:04:09.247Z,31.71
2023-08-24T20:06:38.173Z,31.77
2023-08-24T20:09:09.988Z,31.60
2023-08-24T20:11:37.768Z,31.34
2023-08-24T20:14:05.487Z,31.40
2023-08-24T20:16:33.582Z,31.31
2023-08-24T20:19:01.889Z,31.24
2023-08-24T20:21:44.590Z,31.03
2023-08-24T20:24:12.094Z,31.06
2023-08-24T20:26:39.874Z,31.10
2023-08-24T20:29:07.908Z,31.02
2023-08-24T20:31:35.307Z,30.90
2023-08-24T20:34:03.125Z,30.91
2023-08-24T20:36:30.665Z,30.77
2023-08-24T20:38:58.402Z,30.68
2023-08-24T20:41:25.878Z,30.73
2023-08-24T20:43:55.471Z,30.76
2023-08-24T20:46:23.474Z,30.65
2023-08-24T20:48:51.110Z,31.00
2023-08-24T20:51:18.541Z,30.81
2023-08-24T20:53:45.937Z,30.68
2023-08-24T20:56:13.475Z,30.85
2023-08-24T20:58:44.294Z,30.83
2023-08-24T21:01:12.168Z,30.84
2023-08-24T21:03:39.925Z,31.03
2023-08-24T21:06:07.547Z,31.22
2023-08-24T21:08:35.006Z,30.94
2023-08-24T21:11:02.387Z,30.87
2023-08-24T21:13:29.843Z,30.76
2023-08-24T21:16:00.748Z,30.75
2023-08-24T21:18:28.406Z,31.26
2023-08-24T21:20:59.896Z,31.07
2023-08-24T21:23:27.974Z,31.37
2023-08-24T21:25:55.582Z,31.48
2023-08-24T21:28:23.921Z,31.30
2023-08-24T21:30:51.371Z,31.22
2023-08-24T21:33:18.909Z,31.27
2023-08-24T21:35:46.348Z,30.56
2023-08-24T21:38:13.774Z,30.81
2023-08-24T21:40:41.942Z,30.72
2023-08-24T21:43:09.434Z,30.42
2023-08-24T21:45:37.865Z,30.55
2023-08-24T21:48:06.561Z,30.41
2023-08-24T21:50:36.949Z,30.21
2023-08-24T21:53:04.554Z,30.35
2023-08-24T21:55:38.046Z,30.20
2023-08-24T21:58:05.606Z,30.20
2023-08-24T22:01:06.291Z,30.17
2023-08-24T22:03:52.317Z,30.00
2023-08-24T22:06:38.097Z,29.87
2023-08-24T22:09:05.896Z,29.95
2023-08-24T22:11:33.345Z,30.33
2023-08-24T22:14:00.738Z,30.27
2023-08-24T22:16:29.896Z,30.29
2023-08-24T22:18:57.322Z,30.43
2023-08-24T22:21:25.111Z,30.36
2023-08-24T22:23:52.981Z,30.40
2023-08-24T22:26:20.896Z,30.44
2023-08-24T22:28:48.302Z,30.42
2023-08-24T22:31:16.284Z,30.24
2023-08-24T22:33:43.766Z,30.22
2023-08-24T22:36:11.142Z,30.28
2023-08-24T22:38:38.695Z,30.02
2023-08-24T22:41:06.563Z,29.76
2023-08-24T22:43:33.874Z,29.51
2023-08-24T22:46:01.255Z,29.32
2023-08-24T22:48:29.008Z,29.31
2023-08-24T22:50:56.776Z,29.52
2023-08-24T22:53:24.167Z,29.76
2023-08-24T22:55:51.835Z,29.69
2023-08-24T22:58:19.270Z,29.57
2023-08-24T23:00:47.016Z,29.92
2023-08-24T23:03:14.894Z,30.04
2023-08-24T23:05:42.423Z,29.90
2023-08-24T23:08:09.898Z,29.94
2023-08-24T23:10:37.448Z,29.55
2023-08-24T23:13:04.836Z,29.59
2023-08-24T23:15:35.639Z,29.51
2023-08-24T23:18:03.336Z,29.56
2023-08-24T23:20:30.980Z,29.25
2023-08-24T23:22:58.753Z,29.32
2023-08-24T23:25:26.258Z,28.95
2023-08-24T23:27:54.710Z,28.81
2023-08-24T23:30:22.197Z,28.64
2023-08-24T23:32:49.668Z,28.87
2023-08-24T23:35:17.115Z,28.44
2023-08-24T23:37:44.524Z,28.45
2023-08-24T23:40:12.243Z,28.32
2023-08-24T23:42:41.752Z,28.29
2023-08-24T23:45:11.297Z,28.29
2023-08-24T23:47:39.648Z,28.24
2023-08-24T23:50:07.308Z,28.40
2023-08-24T23:52:34.881Z,28.67
2023-08-24T23:55:03.788Z,28.77
2023-08-24T23:57:31.212Z,28.80
2023-08-24T23:59:59.135Z,29.06
